createdAt,value
2023-05-14T00:01:45.027Z,98937.98
2023-05-14T00:04:12.581Z,98938.98
2023-05-14T00:06:40.147Z,98935.73
2023-05-14T00:09:07.700Z,98934.45
2023-05-14T00:11:35.254Z,98933.49
2023-05-14T00:14:02.812Z,98933.41
2023-05-14T00:16:30.655Z,98934.04
2023-05-14T00:18:58.386Z,98928.00
2023-05-14T00:21:25.956Z,98926.10
2023-05-14T00:23:53.500Z,98927.76
2023-05-14T00:26:20.996Z,98928.89
2023-05-14T00:28:48.552Z,98928.30
2023-05-14T00:31:16.096Z,98928.08
2023-05-14T00:33:43.615Z,98930.55
2023-05-14T00:36:11.172Z,98934.22
2023-05-14T00:38:38.713Z,98934.83
2023-05-14T00:41:06.294Z,98934.25
2023-05-14T00:43:33.822Z,98930.44
2023-05-14T00:46:01.636Z,98931.39
2023-05-14T00:48:29.575Z,98927.91
2023-05-14T00:50:57.540Z,98927.29
2023-05-14T00:53:25.264Z,98933.72
2023-05-14T00:55:52.950Z,98929.13
2023-05-14T00:58:21.934Z,98927.60
2023-05-14T01:00:49.488Z,98930.33
2023-05-14T01:03:20.150Z,98927.41
2023-05-14T01:05:58.773Z,98927.55
2023-05-14T01:08:50.634Z,98927.52
2023-05-14T01:11:53.686Z,98926.97
2023-05-14T01:14:28.610Z,98922.84
2023-05-14T01:16:59.041Z,98928.37
2023-05-14T01:19:41.102Z,98927.95
2023-05-14T01:22:08.863Z,98924.00
2023-05-14T01:24:36.461Z,98927.73
2023-05-14T01:27:29.716Z,98919.05
2023-05-14T01:30:11.396Z,98924.36
2023-05-14T01:32:40.639Z,98925.41
2023-05-14T01:35:09.808Z,98933.64
2023-05-14T01:37:38.747Z,98933.03
2023-05-14T01:40:07.182Z,98934.77
2023-05-14T01:42:35.383Z,98933.52
2023-05-14T01:45:03.294Z,98935.65
2023-05-14T01:47:30.842Z,98933.70
2023-05-14T01:49:58.593Z,98933.95
2023-05-14T01:52:26.181Z,98935.88
2023-05-14T01:54:53.689Z,98934.27
2023-05-14T01:57:21.227Z,98934.89
2023-05-14T01:59:48.758Z,98929.57
2023-05-14T02:02:16.293Z,98927.98
2023-05-14T02:04:46.489Z,98930.65
2023-05-14T02:07:13.968Z,98930.79
2023-05-14T02:09:41.781Z,98929.42
2023-05-14T02:12:11.339Z,98924.62
2023-05-14T02:14:38.901Z,98924.87
2023-05-14T02:17:06.452Z,98921.56
2023-05-14T02:19:34.022Z,98922.49
2023-05-14T02:22:01.547Z,98922.24
2023-05-14T02:24:29.195Z,98919.95
2023-05-14T02:26:56.777Z,98918.98
2023-05-14T02:29:24.456Z,98918.33
2023-05-14T02:31:52.159Z,98913.65
2023-05-14T02:34:19.770Z,98912.33
2023-05-14T02:36:47.286Z,98920.16
2023-05-14T02:39:14.840Z,98923.27
2023-05-14T02:41:42.464Z,98922.23
2023-05-14T02:44:09.993Z,98920.18
2023-05-14T02:46:37.610Z,98916.48
2023-05-14T02:49:05.150Z,98911.77
2023-05-14T02:51:32.661Z,98906.90
2023-05-14T02:54:00.232Z,98907.95
2023-05-14T02:56:27.816Z,98907.64
2023-05-14T02:58:55.357Z,98903.27
2023-05-14T03:01:23.610Z,98900.92
2023-05-14T03:03:51.622Z,98895.70
2023-05-14T03:06:20.001Z,98892.70
2023-05-14T03:08:47.565Z,98891.54
2023-05-14T03:11:15.218Z,98886.46
2023-05-14T03:13:42.784Z,98884.75
2023-05-14T03:16:10.348Z,98885.45
2023-05-14T03:18:37.946Z,98882.72
2023-05-14T03:21:05.559Z,98874.39
2023-05-14T03:23:33.137Z,98874.34
2023-05-14T03:26:01.319Z,98869.19
2023-05-14T03:28:28.879Z,98871.25
2023-05-14T03:30:56.616Z,98869.44
2023-05-14T03:33:24.301Z,98870.46
2023-05-14T03:35:52.028Z,98878.08
2023-05-14T03:38:19.639Z,98883.52
2023-05-14T03:40:47.249Z,98884.91
2023-05-14T03:43:19.721Z,98883.94
2023-05-14T03:45:47.301Z,98875.81
2023-05-14T03:48:14.976Z,98872.08
2023-05-14T03:50:42.690Z,98867.94
2023-05-14T03:53:10.252Z,98859.54
2023-05-14T03:55:37.847Z,98855.03
2023-05-14T03:58:05.378Z,98863.26
2023-05-14T04:00:32.982Z,98864.60
2023-05-14T04:03:00.647Z,98862.08
2023-05-14T04:05:30.218Z,98859.35
2023-05-14T04:07:57.878Z,98860.02
2023-05-14T04:10:25.517Z,98860.84
2023-05-14T04:12:53.248Z,98864.32
2023-05-14T04:15:20.917Z,98865.75
2023-05-14T04:17:48.466Z,98867.03
2023-05-14T04:20:18.868Z,98871.02
2023-05-14T04:22:46.418Z,98869.59
2023-05-14T04:25:14.028Z,98865.30
2023-05-14T04:27:41.535Z,98866.86
2023-05-14T04:30:11.582Z,98868.09
2023-05-14T04:32:39.297Z,98865.77
2023-05-14T04:35:07.762Z,98862.74
2023-05-14T04:37:35.335Z,98863.95
2023-05-14T04:40:04.488Z,98867.06
2023-05-14T04:42:32.060Z,98862.83
2023-05-14T04:44:59.594Z,98867.06
2023-05-14T04:47:27.163Z,98871.93
2023-05-14T04:49:54.678Z,98873.73
2023-05-14T04:52:22.214Z,98873.16
2023-05-14T04:54:51.269Z,98872.89
2023-05-14T04:57:18.967Z,98875.34
2023-05-14T04:59:46.578Z,98870.77
2023-05-14T05:02:14.125Z,98870.08
2023-05-14T05:04:41.740Z,98870.35
2023-05-14T05:07:09.307Z,98869.89
2023-05-14T05:09:36.896Z,98871.94
2023-05-14T05:12:05.048Z,98868.92
2023-05-14T05:14:32.588Z,98866.52
2023-05-14T05:17:00.121Z,98871.45
2023-05-14T05:19:39.723Z,98867.06
2023-05-14T05:22:11.206Z,98866.88
2023-05-14T05:24:38.823Z,98860.09
2023-05-14T05:27:06.362Z,98850.42
2023-05-14T05:29:34.644Z,98849.09
2023-05-14T05:32:02.443Z,98846.70
2023-05-14T05:34:29.988Z,98848.31
2023-05-14T05:36:57.531Z,98845.48
2023-05-14T05:39:25.225Z,98845.42
2023-05-14T05:41:54.337Z,98845.41
2023-05-14T05:44:21.876Z,98844.89
2023-05-14T05:46:49.470Z,98842.50
2023-05-14T05:49:17.136Z,98846.56
2023-05-14T05:51:44.672Z,98847.05
2023-05-14T05:54:12.238Z,98848.80
2023-05-14T05:56:39.751Z,98848.08
2023-05-14T05:59:07.295Z,98849.48
2023-05-14T06:01:34.886Z,98850.70
2023-05-14T06:04:02.399Z,98852.83
2023-05-14T06:06:29.922Z,98854.28
2023-05-14T06:08:57.437Z,98853.36
2023-05-14T06:11:25.184Z,98852.09
2023-05-14T06:13:52.751Z,98849.39
2023-05-14T06:16:20.323Z,98845.31
2023-05-14T06:18:47.929Z,98840.72
2023-05-14T06:21:15.492Z,98836.95
2023-05-14T06:23:43.094Z,98836.65
2023-05-14T06:26:12.595Z,98828.91
2023-05-14T06:28:40.135Z,98830.34
2023-05-14T06:31:07.724Z,98830.92
2023-05-14T06:33:35.334Z,98831.16
2023-05-14T06:36:06.286Z,98829.88
2023-05-14T06:38:33.874Z,98831.02
2023-05-14T06:41:01.443Z,98830.05
2023-05-14T06:43:29.119Z,98826.96
2023-05-14T06:45:56.629Z,98823.91
2023-05-14T06:48:24.495Z,98820.81
2023-05-14T06:50:52.213Z,98823.09
2023-05-14T06:53:19.737Z,98820.42
2023-05-14T06:55:48.409Z,98820.92
2023-05-14T06:58:15.977Z,98824.22
2023-05-14T07:00:44.755Z,98824.20
2023-05-14T07:03:12.314Z,98816.86
2023-05-14T07:05:42.595Z,98819.59
2023-05-14T07:08:10.160Z,98820.27
2023-05-14T07:10:37.729Z,98818.11
2023-05-14T07:13:05.703Z,98812.95
2023-05-14T07:15:35.833Z,98813.66
2023-05-14T07:18:03.689Z,98813.14
2023-05-14T07:20:31.213Z,98816.43
2023-05-14T07:22:58.731Z,98821.67
2023-05-14T07:25:26.260Z,98824.52
2023-05-14T07:27:53.776Z,98824.60
2023-05-14T07:30:21.870Z,98832.34
2023-05-14T07:32:49.773Z,98835.69
2023-05-14T07:35:17.526Z,98838.70
2023-05-14T07:37:45.075Z,98839.86
2023-05-14T07:40:12.742Z,98844.13
2023-05-14T07:42:40.585Z,98846.42
2023-05-14T07:45:08.894Z,98840.19
2023-05-14T07:47:36.620Z,98841.41
2023-05-14T07:50:04.567Z,98837.73
2023-05-14T07:52:32.221Z,98830.32
2023-05-14T07:54:59.956Z,98827.52
2023-05-14T07:57:27.530Z,98824.84
2023-05-14T07:59:55.132Z,98822.65
2023-05-14T08:02:22.748Z,98814.65
2023-05-14T08:04:50.465Z,98808.27
2023-05-14T08:07:18.026Z,98810.25
2023-05-14T08:09:45.553Z,98801.28
2023-05-14T08:12:14.351Z,98797.08
2023-05-14T08:14:42.136Z,98794.39
2023-05-14T08:17:09.898Z,98787.79
2023-05-14T08:19:37.573Z,98783.17
2023-05-14T08:22:05.246Z,98783.49
2023-05-14T08:24:32.734Z,98781.63
2023-05-14T08:27:00.278Z,98775.95
2023-05-14T08:29:28.089Z,98771.05
2023-05-14T08:31:55.700Z,98768.05
2023-05-14T08:34:23.235Z,98765.59
2023-05-14T08:36:50.759Z,98767.45
2023-05-14T08:39:18.283Z,98764.31
2023-05-14T08:41:45.883Z,98761.52
2023-05-14T08:44:17.749Z,98758.25
2023-05-14T08:46:45.778Z,98756.31
2023-05-14T08:49:35.316Z,98752.15
2023-05-14T08:52:03.120Z,98758.15
2023-05-14T08:54:30.713Z,98756.08
2023-05-14T08:56:58.825Z,98751.42
2023-05-14T08:59:26.868Z,98749.97
2023-05-14T09:01:56.291Z,98745.05
2023-05-14T09:04:25.000Z,98746.98
2023-05-14T09:06:53.819Z,98742.84
2023-05-14T09:09:22.596Z,98745.94
2023-05-14T09:11:52.181Z,98743.01
2023-05-14T09:14:20.047Z,98738.88
2023-05-14T09:16:51.338Z,98738.45
2023-05-14T09:19:19.824Z,98741.20
2023-05-14T09:21:49.260Z,98740.52
2023-05-14T09:24:21.273Z,98742.87
2023-05-14T09:26:53.812Z,98732.41
2023-05-14T09:29:28.485Z,98733.29
2023-05-14T09:31:57.964Z,98728.42
2023-05-14T09:34:34.372Z,98725.11
2023-05-14T09:37:06.802Z,98722.27
2023-05-14T09:39:36.421Z,98726.67
2023-05-14T09:42:04.861Z,98727.78
2023-05-14T09:44:32.476Z,98734.28
2023-05-14T09:46:59.988Z,98726.73
2023-05-14T09:49:27.595Z,98726.09
2023-05-14T09:51:55.219Z,98723.84
2023-05-14T09:54:24.098Z,98718.88
2023-05-14T09:56:52.545Z,98713.38
2023-05-14T09:59:20.889Z,98712.44
2023-05-14T10:01:49.821Z,98708.27
2023-05-14T10:04:18.127Z,98707.09
2023-05-14T10:06:48.297Z,98707.06
2023-05-14T10:09:19.685Z,98697.27
2023-05-14T10:11:50.133Z,98700.09
2023-05-14T10:14:22.800Z,98691.83
2023-05-14T10:16:51.426Z,98688.21
2023-05-14T10:19:23.643Z,98683.59
2023-05-14T10:21:57.182Z,98681.62
2023-05-14T10:24:25.647Z,98677.35
2023-05-14T10:26:53.844Z,98673.36
2023-05-14T10:29:33.336Z,98671.38
2023-05-14T10:32:04.953Z,98671.90
2023-05-14T10:34:38.949Z,98665.96
2023-05-14T10:37:09.435Z,98659.95
2023-05-14T10:39:43.162Z,98656.77
2023-05-14T10:42:12.366Z,98651.35
2023-05-14T10:44:54.983Z,98647.23
2023-05-14T10:47:23.090Z,98641.92
2023-05-14T10:49:54.126Z,98639.55
2023-05-14T10:52:22.233Z,98642.38
2023-05-14T10:54:50.710Z,98637.46
2023-05-14T10:57:20.693Z,98638.80
2023-05-14T10:59:50.179Z,98639.04
2023-05-14T11:02:23.538Z,98635.25
2023-05-14T11:05:07.838Z,98628.27
2023-05-14T11:07:40.762Z,98622.34
2023-05-14T11:10:09.638Z,98626.77
2023-05-14T11:12:42.456Z,98626.53
2023-05-14T11:15:12.269Z,98628.67
2023-05-14T11:17:41.643Z,98623.01
2023-05-14T11:20:10.857Z,98620.08
2023-05-14T11:22:39.727Z,98616.96
2023-05-14T11:25:08.330Z,98612.17
2023-05-14T11:27:38.562Z,98607.98
2023-05-14T11:30:13.419Z,98611.64
2023-05-14T11:32:41.888Z,98608.19
2023-05-14T11:35:09.677Z,98606.08
2023-05-14T11:37:37.219Z,98608.00
2023-05-14T11:40:08.350Z,98609.14
2023-05-14T11:42:36.830Z,98612.98
2023-05-14T11:45:10.448Z,98616.00
2023-05-14T11:47:38.030Z,98611.94
2023-05-14T11:50:07.949Z,98610.73
2023-05-14T11:52:39.108Z,98603.98
2023-05-14T11:55:10.732Z,98605.23
2023-05-14T11:57:38.387Z,98605.02
2023-05-14T12:00:11.345Z,98600.38
2023-05-14T12:02:39.259Z,98593.07
2023-05-14T12:05:10.168Z,98588.33
2023-05-14T12:07:39.009Z,98580.95
2023-05-14T12:10:06.734Z,98577.58
2023-05-14T12:12:36.134Z,98571.48
2023-05-14T12:15:11.360Z,98575.45
2023-05-14T12:17:39.510Z,98570.94
2023-05-14T12:20:11.635Z,98564.42
2023-05-14T12:22:41.504Z,98561.05
2023-05-14T12:25:13.114Z,98557.95
2023-05-14T12:27:41.475Z,98549.27
2023-05-14T12:32:39.998Z,98538.91
2023-05-14T12:35:08.448Z,98533.64
2023-05-14T12:37:36.258Z,98529.25
2023-05-14T12:40:04.811Z,98528.95
2023-05-14T12:42:32.370Z,98522.67
2023-05-14T12:44:59.898Z,98523.33
2023-05-14T12:47:27.499Z,98521.02
2023-05-14T12:49:55.078Z,98520.23
2023-05-14T12:52:36.806Z,98520.84
2023-05-14T12:55:09.077Z,98510.89
2023-05-14T12:57:37.824Z,98512.13
2023-05-14T13:00:06.282Z,98517.33
2023-05-14T13:02:43.044Z,98509.30
2023-05-14T13:05:12.009Z,98497.38
2023-05-14T13:07:39.661Z,98495.81
2023-05-14T13:10:07.690Z,98492.47
2023-05-14T13:12:35.240Z,98485.02
2023-05-14T13:15:02.827Z,98486.06
2023-05-14T13:17:33.309Z,98487.83
2023-05-14T13:20:01.061Z,98489.29
2023-05-14T13:22:28.620Z,98488.79
2023-05-14T13:24:56.158Z,98486.76
2023-05-14T13:27:23.895Z,98488.08
2023-05-14T13:29:51.623Z,98479.28
2023-05-14T13:32:19.130Z,98473.65
2023-05-14T13:34:46.662Z,98467.86
2023-05-14T13:37:14.283Z,98458.33
2023-05-14T13:39:41.814Z,98453.89
2023-05-14T13:42:09.329Z,98445.82
2023-05-14T13:44:37.048Z,98442.70
2023-05-14T13:47:05.063Z,98442.39
2023-05-14T13:49:32.656Z,98438.88
2023-05-14T13:52:00.274Z,98438.98
2023-05-14T13:54:27.825Z,98431.26
2023-05-14T13:56:55.531Z,98426.16
2023-05-14T13:59:23.107Z,98418.16
2023-05-14T14:01:50.669Z,98410.55
2023-05-14T14:04:18.237Z,98408.58
2023-05-14T14:06:45.753Z,98408.13
2023-05-14T14:09:13.286Z,98410.06
2023-05-14T14:11:40.946Z,98405.70
2023-05-14T14:14:08.472Z,98400.46
2023-05-14T14:16:36.054Z,98396.78
2023-05-14T14:19:03.813Z,98391.41
2023-05-14T14:21:31.451Z,98380.02
2023-05-14T14:23:58.993Z,98380.66
2023-05-14T14:26:26.602Z,98375.71
2023-05-14T14:28:54.166Z,98380.80
2023-05-14T14:31:21.980Z,98382.39
2023-05-14T14:33:49.621Z,98384.36
2023-05-14T14:36:17.157Z,98380.33
2023-05-14T14:38:44.732Z,98372.38
2023-05-14T14:41:12.366Z,98374.16
2023-05-14T14:43:40.801Z,98375.42
2023-05-14T14:46:08.366Z,98374.16
2023-05-14T14:48:36.374Z,98366.86
2023-05-14T14:51:05.690Z,98361.33
2023-05-14T14:53:33.676Z,98357.70
2023-05-14T14:56:01.844Z,98353.66
2023-05-14T14:58:29.519Z,98347.59
2023-05-14T15:00:57.521Z,98335.71
2023-05-14T15:03:25.945Z,98330.63
2023-05-14T15:05:53.968Z,98326.45
2023-05-14T15:08:26.019Z,98325.51
2023-05-14T15:10:54.879Z,98327.48
2023-05-14T15:13:22.812Z,98327.81
2023-05-14T15:15:51.346Z,98319.01
2023-05-14T15:18:18.973Z,98321.35
2023-05-14T15:20:49.705Z,98323.00
2023-05-14T15:23:17.353Z,98326.04
2023-05-14T15:25:44.946Z,98332.50
2023-05-14T15:28:12.631Z,98330.82
2023-05-14T15:30:40.201Z,98328.40
2023-05-14T15:33:08.097Z,98328.35
2023-05-14T15:35:35.787Z,98324.85
2023-05-14T15:38:03.482Z,98320.49
2023-05-14T15:40:31.009Z,98317.20
2023-05-14T15:42:58.664Z,98312.75
2023-05-14T15:45:26.237Z,98306.52
2023-05-14T15:47:53.988Z,98303.63
2023-05-14T15:50:21.662Z,98300.83
2023-05-14T15:52:49.368Z,98303.34
2023-05-14T15:55:16.984Z,98302.39
2023-05-14T15:57:47.615Z,98301.27
2023-05-14T16:00:15.788Z,98293.40
2023-05-14T16:02:43.434Z,98289.91
2023-05-14T16:05:11.191Z,98283.30
2023-05-14T16:07:38.854Z,98275.13
2023-05-14T16:10:07.074Z,98268.15
2023-05-14T16:12:34.749Z,98260.84
2023-05-14T16:15:02.324Z,98264.30
2023-05-14T16:17:30.011Z,98268.13
2023-05-14T16:19:57.574Z,98266.38
2023-05-14T16:22:25.263Z,98271.05
2023-05-14T16:24:53.018Z,98272.33
2023-05-14T16:27:20.525Z,98270.13
2023-05-14T16:29:48.030Z,98269.76
2023-05-14T16:32:15.645Z,98268.10
2023-05-14T16:34:43.204Z,98264.17
2023-05-14T16:37:13.050Z,98268.19
2023-05-14T16:39:40.791Z,98264.20
2023-05-14T16:42:08.404Z,98264.09
2023-05-14T16:44:35.982Z,98261.23
2023-05-14T16:47:04.313Z,98256.85
2023-05-14T16:49:31.833Z,98259.80
2023-05-14T16:51:59.402Z,98262.48
2023-05-14T16:54:27.018Z,98261.52
2023-05-14T16:56:54.573Z,98256.70
2023-05-14T16:59:22.109Z,98255.67
2023-05-14T17:01:49.820Z,98254.34
2023-05-14T17:04:17.454Z,98252.64
2023-05-14T17:06:46.345Z,98254.75
2023-05-14T17:09:13.905Z,98250.33
2023-05-14T17:11:41.443Z,98249.29
2023-05-14T17:14:07.909Z,98246.42
2023-05-14T17:16:35.404Z,98250.79
2023-05-14T17:19:01.905Z,98244.81
2023-05-14T17:21:29.492Z,98244.00
2023-05-14T17:23:57.172Z,98240.50
2023-05-14T17:26:24.940Z,98239.56
2023-05-14T17:28:52.491Z,98237.90
2023-05-14T17:31:20.093Z,98234.96
2023-05-14T17:33:47.692Z,98232.36
2023-05-14T17:36:15.273Z,98228.92
2023-05-14T17:38:42.825Z,98229.37
2023-05-14T17:41:10.402Z,98229.15
2023-05-14T17:43:37.975Z,98230.05
2023-05-14T17:46:05.570Z,98232.66
2023-05-14T17:48:33.127Z,98236.39
2023-05-14T17:51:00.720Z,98246.70
2023-05-14T17:53:28.285Z,98243.71
2023-05-14T17:55:55.882Z,98241.16
2023-05-14T17:58:24.161Z,98255.73
2023-05-14T18:00:51.782Z,98251.37
2023-05-14T18:03:19.683Z,98248.09
2023-05-14T18:05:47.426Z,98251.64
2023-05-14T18:08:14.998Z,98261.36
2023-05-14T18:10:42.615Z,98261.41
2023-05-14T18:13:10.153Z,98275.55
2023-05-14T18:15:37.745Z,98269.02
2023-05-14T18:18:05.783Z,98268.14
2023-05-14T18:20:35.331Z,98264.88
2023-05-14T18:23:03.386Z,98263.67
2023-05-14T18:25:30.994Z,98269.92
2023-05-14T18:27:59.043Z,98279.98
2023-05-14T18:30:26.581Z,98274.92
2023-05-14T18:32:54.166Z,98270.19
2023-05-14T18:35:21.872Z,98269.50
2023-05-14T18:37:49.604Z,98268.40
2023-05-14T18:40:18.732Z,98268.34
2023-05-14T18:42:46.651Z,98270.98
2023-05-14T18:45:14.241Z,98277.20
2023-05-14T18:47:41.920Z,98279.95
2023-05-14T18:50:10.042Z,98283.52
2023-05-14T18:52:37.652Z,98286.76
2023-05-14T18:55:05.699Z,98289.38
2023-05-14T18:57:33.399Z,98289.06
2023-05-14T19:00:00.970Z,98290.10
2023-05-14T19:02:28.789Z,98288.55
2023-05-14T19:04:56.572Z,98282.28
2023-05-14T19:07:24.352Z,98278.44
2023-05-14T19:09:52.312Z,98273.67
2023-05-14T19:12:19.855Z,98268.94
2023-05-14T19:14:47.395Z,98274.71
2023-05-14T19:17:14.992Z,98278.05
2023-05-14T19:19:42.490Z,98284.10
2023-05-14T19:22:10.062Z,98286.20
2023-05-14T19:24:37.627Z,98290.66
2023-05-14T19:27:05.553Z,98293.59
2023-05-14T19:29:33.114Z,98296.61
2023-05-14T19:32:00.836Z,98304.33
2023-05-14T19:34:28.531Z,98305.86
2023-05-14T19:36:56.116Z,98303.58
2023-05-14T19:39:23.686Z,98306.55
2023-05-14T19:41:51.293Z,98304.86
2023-05-14T19:44:18.958Z,98302.10
2023-05-14T19:46:48.715Z,98301.45
2023-05-14T19:49:16.444Z,98305.06
2023-05-14T19:51:44.104Z,98301.34
2023-05-14T19:54:11.620Z,98293.08
2023-05-14T19:56:39.231Z,98298.08
2023-05-14T19:59:06.746Z,98293.02
2023-05-14T20:01:36.840Z,98286.95
2023-05-14T20:04:04.611Z,98282.56
2023-05-14T20:06:32.163Z,98284.61
2023-05-14T20:09:00.750Z,98287.84
2023-05-14T20:11:28.274Z,98282.52
2023-05-14T20:13:55.818Z,98285.73
2023-05-14T20:16:26.183Z,98285.38
2023-05-14T20:18:54.182Z,98284.15
2023-05-14T20:21:21.759Z,98276.08
2023-05-14T20:23:49.315Z,98276.02
2023-05-14T20:26:16.899Z,98268.16
2023-05-14T20:28:44.473Z,98262.14
2023-05-14T20:31:12.032Z,98255.95
2023-05-14T20:33:39.557Z,98253.01
2023-05-14T20:36:07.136Z,98247.40
2023-05-14T20:38:34.763Z,98240.54
2023-05-14T20:41:02.346Z,98233.00
2023-05-14T20:43:29.888Z,98226.02
2023-05-14T20:45:58.658Z,98211.34
2023-05-14T20:48:26.304Z,98198.22
2023-05-14T20:50:53.828Z,98184.75
2023-05-14T20:53:21.413Z,98170.55
2023-05-14T20:55:49.079Z,98158.81
2023-05-14T20:58:16.616Z,98153.58
2023-05-14T21:00:44.147Z,98141.42
2023-05-14T21:03:11.852Z,98128.55
2023-05-14T21:05:39.592Z,98117.50
2023-05-14T21:08:07.738Z,98108.71
2023-05-14T21:10:35.425Z,98104.69
2023-05-14T21:13:02.978Z,98097.19
2023-05-14T21:15:30.556Z,98084.70
2023-05-14T21:17:58.310Z,98076.71
2023-05-14T21:20:25.957Z,98080.19
2023-05-14T21:22:53.508Z,98074.88
2023-05-14T21:25:21.165Z,98071.48
2023-05-14T21:27:48.722Z,98071.16
2023-05-14T21:30:16.397Z,98068.42
2023-05-14T21:32:43.952Z,98075.66
2023-05-14T21:35:11.590Z,98084.62
2023-05-14T21:37:39.293Z,98080.35
2023-05-14T21:40:09.166Z,98079.13
2023-05-14T21:42:36.617Z,98080.59
2023-05-14T21:45:04.517Z,98077.83
2023-05-14T21:47:33.010Z,98074.85
2023-05-14T21:50:00.635Z,98067.59
2023-05-14T21:52:28.170Z,98063.55
2023-05-14T21:55:04.915Z,98053.89
2023-05-14T21:57:34.657Z,98054.13
2023-05-14T22:00:04.733Z,98052.35
2023-05-14T22:02:32.399Z,98045.89
2023-05-14T22:05:00.081Z,98033.36
2023-05-14T22:07:27.637Z,98026.14
2023-05-14T22:09:55.190Z,98018.35
2023-05-14T22:12:22.746Z,98012.60
2023-05-14T22:14:50.286Z,98013.51
2023-05-14T22:17:17.852Z,98013.64
2023-05-14T22:19:45.389Z,98014.06
2023-05-14T22:22:12.950Z,98013.39
2023-05-14T22:24:40.454Z,98004.55
2023-05-14T22:27:07.999Z,98000.66
2023-05-14T22:29:37.506Z,97992.52
2023-05-14T22:32:06.647Z,97993.49
2023-05-14T22:34:34.166Z,97988.59
2023-05-14T22:37:01.941Z,97982.80
2023-05-14T22:39:29.674Z,97974.52
2023-05-14T22:41:57.281Z,97977.04
2023-05-14T22:44:25.417Z,97977.77
2023-05-14T22:46:53.727Z,97976.92
2023-05-14T22:49:21.404Z,97978.05
2023-05-14T22:51:50.089Z,97975.39
2023-05-14T22:54:17.654Z,97976.27
2023-05-14T22:56:46.001Z,97973.22
2023-05-14T22:59:13.562Z,97972.93
2023-05-14T23:01:41.401Z,97967.89
2023-05-14T23:04:09.053Z,97967.14
2023-05-14T23:06:37.290Z,97965.96
2023-05-14T23:09:04.896Z,97961.58
2023-05-14T23:11:32.408Z,97941.91
2023-05-14T23:13:59.913Z,97929.42
2023-05-14T23:16:27.562Z,97922.48
2023-05-14T23:18:56.199Z,97923.73
2023-05-14T23:21:23.954Z,97929.13
2023-05-14T23:23:51.789Z,97926.14
2023-05-14T23:26:19.401Z,97922.27
2023-05-14T23:28:46.932Z,97913.48
2023-05-14T23:31:14.461Z,97907.51
2023-05-14T23:33:41.974Z,97908.73
2023-05-14T23:36:09.746Z,97903.91
2023-05-14T23:38:37.614Z,97896.68
2023-05-14T23:41:05.183Z,97897.17
2023-05-14T23:43:32.731Z,97899.96
2023-05-14T23:46:00.878Z,97903.08
2023-05-14T23:48:28.563Z,97901.98
2023-05-14T23:50:58.005Z,97897.24
2023-05-14T23:53:25.778Z,97894.04
2023-05-14T23:55:53.349Z,97890.16
2023-05-14T23:58:20.961Z,97891.58
